Time;durP1;ratioP1;P1;durP2;ratioP2;P2;SDS_P1;SDS_P2;PMS_P1;PMS_P2;Temp;Humidity;BMP_temperature;BMP_pressure;BME280_temperature;BME280_humidity;BME280_pressure;Samples;Min_cycle;Max_cycle;Signal;HPM_P1;HPM_P2
2022/12/27 00:01:44;;;;;;;6.35;1.27;;;;;;;6.53;87.45;100691.24;1624884;86;21044;-77
2022/12/27 00:04:30;;;;;;;6.28;1.32;;;;;;;6.48;87.38;100701.51;1642167;86;21036;-77
2022/12/27 00:07:15;;;;;;;5.67;1.00;;;;;;;6.45;87.25;100709.20;1619500;86;21128;-77
2022/12/27 00:10:00;;;;;;;8.65;1.07;;;;;;;6.44;87.35;100712.63;1633820;86;21040;-77
2022/12/27 00:12:45;;;;;;;6.45;1.20;;;;;;;6.42;87.23;100718.61;1628553;86;21124;-77
2022/12/27 00:15:33;;;;;;;9.08;1.50;;;;;;;6.43;87.24;100723.75;1652747;84;21517;-77
2022/12/27 00:18:18;;;;;;;5.67;1.20;;;;;;;6.42;87.13;100726.32;1648095;83;21112;-77
2022/12/27 00:21:06;;;;;;;4.50;1.35;;;;;;;6.40;87.13;100741.73;1619394;84;21028;-77
2022/12/27 00:23:54;;;;;;;7.35;1.80;;;;;;;6.38;87.14;100742.58;1622890;86;20977;-77
2022/12/27 00:26:40;;;;;;;6.08;1.20;;;;;;;6.37;87.11;100746.85;1618665;86;20914;-77
2022/12/27 00:29:25;;;;;;;5.15;1.70;;;;;;;6.39;87.08;100749.00;1622062;86;20942;-77
2022/12/27 00:32:10;;;;;;;4.67;1.77;;;;;;;6.39;87.01;100752.85;1636453;85;21335;-77
2022/12/27 00:34:55;;;;;;;9.10;1.40;;;;;;;6.39;86.98;100753.28;1641366;86;20941;-77
2022/12/27 00:37:40;;;;;;;5.22;1.72;;;;;;;6.37;86.87;100753.27;1644000;85;21006;-77
2022/12/27 00:40:25;;;;;;;4.53;1.40;;;;;;;6.36;86.84;100757.12;1662126;85;21498;-77
2022/12/27 00:43:10;;;;;;;5.92;1.80;;;;;;;6.31;86.72;100765.66;1648099;84;21510;-77
2022/12/27 00:45:56;;;;;;;3.90;1.50;;;;;;;6.24;86.68;100766.91;1649717;85;21419;-77
2022/12/27 00:48:42;;;;;;;8.58;1.72;;;;;;;6.18;86.63;100771.63;1656293;85;20965;-77
2022/12/27 00:51:27;;;;;;;10.80;2.12;;;;;;;6.12;86.64;100779.30;1657414;85;20975;-77
2022/12/27 00:54:12;;;;;;;4.78;1.67;;;;;;;6.04;86.47;100780.97;1665792;82;21420;-77
2022/12/27 00:56:57;;;;;;;3.47;1.23;;;;;;;5.96;86.56;100786.06;1640547;84;20921;-77
2022/12/27 00:59:42;;;;;;;6.28;1.62;;;;;;;5.94;86.48;100792.04;1658716;85;21032;-77
2022/12/27 01:02:27;;;;;;;11.43;1.47;;;;;;;5.89;86.44;100793.30;1662069;85;21403;-77
2022/12/27 01:05:12;;;;;;;6.80;1.57;;;;;;;5.83;86.40;100789.37;1660191;85;20992;-77
2022/12/27 01:07:57;;;;;;;4.05;1.27;;;;;;;5.79;86.34;100800.89;1653569;85;20954;-77
2022/12/27 01:10:42;;;;;;;7.10;1.70;;;;;;;5.73;86.33;100802.13;1665091;85;20947;-77
2022/12/27 01:13:28;;;;;;;5.70;1.47;;;;;;;5.65;86.22;100807.24;1643504;85;21539;-77
2022/12/27 01:16:17;;;;;;;9.83;1.82;;;;;;;5.59;86.23;100807.20;1662588;85;20976;-77
2022/12/27 01:19:02;;;;;;;7.58;1.22;;;;;;;5.56;86.28;100805.47;1659297;82;21023;-77
2022/12/27 01:21:47;;;;;;;5.67;1.17;;;;;;;5.52;86.19;100810.14;1650530;85;21476;-77
2022/12/27 01:24:33;;;;;;;5.42;1.42;;;;;;;5.51;86.19;100812.27;1664170;83;21418;-77
2022/12/27 01:27:18;;;;;;;;;;;;;;;5.50;86.18;100813.12;1653983;84;20975;-77
2022/12/27 01:30:05;;;;;;;6.20;0.98;;;;;;;5.49;85.76;100814.39;1663103;85;20113;-77
2022/12/27 01:32:50;;;;;;;7.20;1.45;;;;;;;5.48;86.03;100821.22;1657590;85;20962;-77
2022/12/27 01:35:35;;;;;;;9.40;1.50;;;;;;;5.47;86.01;100817.36;1639949;85;20961;-77
2022/12/27 01:38:20;;;;;;;4.50;1.00;;;;;;;5.47;85.97;100817.36;1642494;86;20954;-77
2022/12/27 01:42:50;;;;;;;4.83;1.05;;;;;;;5.45;85.97;100822.48;1628571;86;20973;-77
2022/12/27 01:43:52;;;;;;;6.20;1.52;;;;;;;5.43;85.92;100819.46;1645763;85;20961;-77
2022/12/27 01:46:37;;;;;;;4.72;1.00;;;;;;;5.40;85.86;100820.30;1643172;86;20959;-77
2022/12/27 01:49:21;;;;;;;2.62;1.20;;;;;;;5.37;85.84;100821.98;1645816;83;20914;-77
2022/12/27 01:52:09;;;;;;;6.78;1.52;;;;;;;5.36;85.86;100817.69;1638811;82;20927;-77
2022/12/27 01:54:58;;;;;;;6.03;1.50;;;;;;;5.34;85.83;100826.66;1629729;86;21609;-77
2022/12/27 01:57:43;;;;;;;8.70;1.45;;;;;;;5.35;85.81;100819.40;1649197;85;20965;-77
2022/12/27 02:00:28;;;;;;;8.45;1.12;;;;;;;5.33;85.81;100825.80;1641789;86;20962;-77
2022/12/27 02:03:18;;;;;;;7.35;1.02;;;;;;;5.33;85.92;100830.06;1623325;85;20921;-77
2022/12/27 02:06:06;;;;;;;4.28;1.05;;;;;;;5.33;85.93;100837.76;1627166;86;20949;-77
2022/12/27 02:09:08;;;;;;;5.33;1.30;;;;;;;5.33;85.79;100839.90;1628264;86;20945;-77
2022/12/27 02:11:56;;;;;;;9.60;2.05;;;;;;;5.31;85.76;100833.89;1619539;86;20977;-77
2022/12/27 02:14:48;;;;;;;9.30;1.15;;;;;;;5.31;85.73;100842.87;1635439;84;20944;-77
2022/12/27 02:17:33;;;;;;;6.72;1.20;;;;;;;5.31;85.65;100844.58;1626170;86;20914;-77
2022/12/27 02:20:21;;;;;;;8.45;1.52;;;;;;;5.29;85.57;100837.29;1624838;85;20922;-77
2022/12/27 02:27:02;;;;;;;6.60;1.00;;;;;;;5.28;85.47;100849.67;1638788;86;20949;-77
2022/12/27 02:30:06;;;;;;;5.67;0.98;;;;;;;5.29;85.47;100853.53;1636984;86;21395;-77
2022/12/27 02:32:56;;;;;;;5.05;1.22;;;;;;;5.31;85.50;100856.97;1652121;82;20926;-77
2022/12/27 02:35:46;;;;;;;7.80;1.40;;;;;;;5.31;85.36;100856.11;1627882;86;20932;-77
2022/12/27 02:38:36;;;;;;;8.08;1.42;;;;;;;5.31;85.33;100863.80;1649266;84;20937;-77
2022/12/27 02:54:13;;;;;;;8.40;1.42;;;;;;;5.25;85.18;100870.16;1642436;86;20949;-77
2022/12/27 02:57:26;;;;;;;5.67;1.35;;;;;;;5.20;85.02;100878.25;1613499;86;21354;-77
2022/12/27 03:03:41;;;;;;;6.80;1.80;;;;;;;5.18;85.09;100888.48;1636747;85;21009;-77
2022/12/27 03:07:01;;;;;;;13.75;1.95;;;;;;;5.18;85.07;100893.62;1650047;86;21281;-77
2022/12/27 03:16:56;;;;;;;7.35;1.75;;;;;;;5.17;84.96;100903.43;1639606;86;21756;-77
2022/12/27 03:25:59;;;;;;;8.30;1.45;;;;;;;5.15;84.90;100911.95;1601738;87;20925;-77
2022/12/27 03:35:12;;;;;;;6.90;1.25;;;;;;;5.17;84.87;100915.39;1619533;86;20994;-77
2022/12/27 03:38:02;;;;;;;8.93;1.80;;;;;;;5.19;84.86;100914.98;1640194;85;21521;-77
2022/12/27 03:44:22;;;;;;;10.80;2.15;;;;;;;5.26;84.83;100924.42;1633049;85;20934;-77
2022/12/27 03:46:47;;;;;;;12.88;1.85;;;;;;;5.27;84.80;100927.01;1627072;84;20941;-77
2022/12/27 03:49:39;;;;;;;7.85;1.77;;;;;;;5.28;84.77;100933.00;1632750;85;20932;-77
2022/12/27 03:52:36;;;;;;;11.40;2.83;;;;;;;5.28;84.76;100931.30;1626433;85;21367;-77
2022/12/27 03:55:22;;;;;;;7.03;2.72;;;;;;;5.30;84.76;100933.88;1647459;85;21426;-77
2022/12/27 03:58:08;;;;;;;6.50;2.00;;;;;;;5.30;84.70;100945.41;1664742;82;20973;-77
2022/12/27 04:00:53;;;;;;;12.00;2.72;;;;;;;5.29;84.68;100950.95;1641411;85;21002;-77
2022/12/27 04:03:38;;;;;;;11.28;1.98;;;;;;;5.32;84.76;100958.69;1622784;85;21518;-77
2022/12/27 04:06:22;;;;;;;8.78;1.77;;;;;;;5.32;84.65;100949.71;1631367;85;20961;-77
2022/12/27 04:36:38;;;;;;;3.62;1.35;;;;;;;5.25;84.42;100968.86;1643141;82;20957;-77
2022/12/27 04:39:23;;;;;;;8.75;1.40;;;;;;;5.27;84.41;100982.13;1660857;85;20970;-77
2022/12/27 04:57:27;;;;;;;7.08;1.57;;;;;;;5.24;84.25;101004.31;1659704;83;21497;-76
2022/12/27 05:03:21;;;;;;;6.53;1.62;;;;;;;5.23;84.13;101009.00;1649095;85;21506;-76
2022/12/27 05:06:06;;;;;;;8.40;1.77;;;;;;;5.22;84.13;101017.53;1665408;82;21266;-76
2022/12/27 05:14:57;;;;;;;7.50;1.60;;;;;;;5.23;84.15;101030.37;1662609;85;21572;-76
2022/12/27 05:17:42;;;;;;;8.00;1.37;;;;;;;5.23;84.10;101032.93;1654371;85;21065;-77
2022/12/27 05:20:27;;;;;;;8.43;1.25;;;;;;;5.23;84.07;101037.20;1658864;84;20929;-77
2022/12/27 05:26:21;;;;;;;10.48;1.90;;;;;;;5.22;84.01;101036.75;1649281;85;20969;-77
2022/12/27 05:29:07;;;;;;;8.98;1.27;;;;;;;5.19;83.95;101035.47;1656673;85;20965;-77
2022/12/27 05:31:51;;;;;;;10.25;1.52;;;;;;;5.18;83.92;101038.88;1667565;83;21381;-77
2022/12/27 05:34:36;;;;;;;7.97;1.40;;;;;;;5.16;83.91;101046.55;1649687;85;20915;-77
2022/12/27 05:37:21;;;;;;;7.17;1.52;;;;;;;5.14;83.86;101046.94;1645988;85;20930;-77
2022/12/27 05:40:09;;;;;;;12.40;2.02;;;;;;;5.14;83.89;101049.50;1641321;85;21041;-77
2022/12/27 05:42:54;;;;;;;13.48;2.33;;;;;;;5.12;83.80;101048.62;1633367;86;20937;-77
2022/12/27 05:45:38;;;;;;;6.62;2.20;;;;;;;5.09;83.71;101049.86;1624317;86;20958;-77
2022/12/27 05:48:23;;;;;;;7.75;2.05;;;;;;;5.06;83.73;101051.52;1636732;86;20994;-76
2022/12/27 05:51:13;;;;;;;9.13;1.80;;;;;;;5.05;83.73;101057.07;1653243;82;21572;-76
2022/12/27 05:53:58;;;;;;;7.70;1.42;;;;;;;5.02;83.66;101063.86;1644951;85;20953;-76
2022/12/27 05:56:43;;;;;;;11.85;1.90;;;;;;;5.01;83.74;101070.69;1619806;86;20936;-76
2022/12/27 05:59:27;;;;;;;10.10;1.47;;;;;;;5.00;83.68;101070.24;1632682;86;20961;-76
2022/12/27 06:02:12;;;;;;;8.85;1.20;;;;;;;4.97;83.67;101069.78;1641542;86;20961;-76
2022/12/27 06:04:57;;;;;;;9.20;1.37;;;;;;;4.97;83.63;101067.63;1624542;86;20938;-76
2022/12/27 06:07:42;;;;;;;7.33;1.27;;;;;;;4.93;83.64;101075.70;1637017;86;20978;-76
2022/12/27 06:10:27;;;;;;;7.58;1.55;;;;;;;4.89;83.49;101070.51;1641096;86;20937;-76
2022/12/27 06:13:12;;;;;;;11.20;2.20;;;;;;;4.87;83.51;101085.00;1618035;86;21000;-76
2022/12/27 06:16:00;;;;;;;11.03;1.60;;;;;;;4.86;83.51;101083.27;1617225;86;21375;-76
2022/12/27 06:18:44;;;;;;;8.50;1.42;;;;;;;4.87;83.45;101096.53;1630583;84;21505;-76
2022/12/27 06:21:29;;;;;;;6.65;1.98;;;;;;;4.86;83.49;101093.52;1606989;86;20940;-77
2022/12/27 06:24:15;;;;;;;7.00;1.47;;;;;;;4.85;83.50;101092.66;1640260;86;20962;-77
2022/12/27 06:27:00;;;;;;;5.45;1.15;;;;;;;4.82;83.44;101091.33;1612401;85;20941;-77
2022/12/27 06:29:45;;;;;;;4.10;1.65;;;;;;;4.80;83.37;101100.70;1626833;85;21429;-77
2022/12/27 06:32:31;;;;;;;9.28;1.35;;;;;;;4.80;83.42;101103.67;1638435;86;20977;-77
2022/12/27 06:35:16;;;;;;;10.93;1.65;;;;;;;4.78;83.36;101100.23;1627064;86;20925;-77
2022/12/27 06:38:01;;;;;;;4.85;1.40;;;;;;;4.76;83.34;101107.89;1624504;86;21035;-77
2022/12/27 06:40:46;;;;;;;6.90;1.37;;;;;;;4.75;83.36;101110.43;1621085;86;20933;-77
2022/12/27 06:43:32;;;;;;;4.10;1.60;;;;;;;4.73;83.26;101112.11;1624615;86;21430;-77
2022/12/27 06:46:17;;;;;;;6.25;1.37;;;;;;;4.69;83.29;101113.75;1613148;86;20913;-77
2022/12/27 06:49:03;;;;;;;5.75;1.37;;;;;;;4.68;83.28;101118.44;1622504;86;20929;-77
2022/12/27 06:51:48;;;;;;;9.08;1.85;;;;;;;4.66;83.30;101112.45;1642683;86;21331;-77
2022/12/27 06:54:33;;;;;;;5.42;1.82;;;;;;;4.67;83.31;101118.45;1630456;86;21247;-77
2022/12/27 06:57:18;;;;;;;7.10;1.80;;;;;;;4.65;83.23;101132.50;1631425;86;20957;-77
2022/12/27 07:00:05;;;;;;;8.95;1.90;;;;;;;4.63;83.20;101134.18;1632358;85;21449;-77
2022/12/27 07:02:50;;;;;;;9.38;2.35;;;;;;;4.62;83.19;101136.30;1629661;85;20936;-77
2022/12/27 07:05:35;;;;;;;9.13;2.17;;;;;;;4.61;83.16;101144.81;1629040;86;20918;-77
2022/12/27 07:08:20;;;;;;;8.00;2.30;;;;;;;4.60;83.12;101137.97;1634197;86;21330;-77
2022/12/27 07:11:09;;;;;;;8.60;1.67;;;;;;;4.58;83.11;101145.63;1626974;83;21426;-77
2022/12/27 07:13:55;;;;;;;6.47;1.62;;;;;;;4.56;83.13;101148.58;1641104;84;20973;-77
2022/12/27 07:16:40;;;;;;;7.17;1.57;;;;;;;4.54;83.05;101145.55;1630705;83;20929;-77
2022/12/27 07:19:25;;;;;;;8.55;1.45;;;;;;;4.53;83.02;101158.77;1627929;86;20961;-77
2022/12/27 07:22:10;;;;;;;6.12;1.75;;;;;;;4.50;82.98;101160.00;1627493;86;20901;-77
2022/12/27 07:24:55;;;;;;;6.83;2.00;;;;;;;4.49;83.00;101158.27;1631589;86;20981;-77
2022/12/27 07:27:40;;;;;;;8.45;2.22;;;;;;;4.48;83.02;101165.51;1612745;86;20973;-77
2022/12/27 07:30:25;;;;;;;4.50;1.47;;;;;;;4.48;83.02;101176.17;1610085;86;21004;-77
2022/12/27 07:33:10;;;;;;;6.97;1.92;;;;;;;4.47;82.91;101171.89;1622123;86;20976;-77
2022/12/27 07:36:00;;;;;;;6.42;2.65;;;;;;;4.45;82.94;101178.26;1626929;86;20928;-77
2022/12/27 07:38:45;;;;;;;6.62;1.30;;;;;;;4.45;82.99;101182.09;1630006;86;20981;-77
2022/12/27 07:41:30;;;;;;;8.53;1.80;;;;;;;4.46;82.93;101180.40;1624798;86;20976;-77
2022/12/27 07:44:15;;;;;;;6.87;1.67;;;;;;;4.43;82.85;101183.77;1632906;86;20921;-77
2022/12/27 07:47:00;;;;;;;8.13;1.85;;;;;;;4.42;82.89;101183.33;1631472;86;20966;-77
2022/12/27 07:49:45;;;;;;;4.78;1.30;;;;;;;4.42;82.88;101197.41;1623518;86;20917;-77
2022/12/27 07:52:30;;;;;;;7.30;1.30;;;;;;;4.41;82.79;101189.28;1620137;86;21506;-77
2022/12/27 07:55:15;;;;;;;8.35;1.60;;;;;;;4.41;82.82;101199.94;1641222;86;20977;-77
2022/12/27 07:58:00;;;;;;;9.55;1.67;;;;;;;4.40;82.85;101204.61;1637068;86;20929;-77
2022/12/27 08:00:47;;;;;;;7.53;1.25;;;;;;;4.41;82.87;101197.38;1631740;86;20914;-77
2022/12/27 08:03:32;;;;;;;4.80;1.20;;;;;;;4.42;82.84;101194.84;1623437;86;21526;-77
2022/12/27 08:06:25;;;;;;;6.35;2.00;;;;;;;4.43;82.83;101203.39;1629277;86;21450;-77
2022/12/27 08:09:14;;;;;;;8.95;1.57;;;;;;;4.44;82.82;101212.80;1624583;85;20973;-77
2022/12/27 08:11:59;;;;;;;6.53;1.40;;;;;;;4.46;82.82;101212.41;1627278;86;21029;-77
2022/12/27 08:14:44;;;;;;;7.45;1.80;;;;;;;4.48;82.80;101223.13;1626391;85;20932;-77
2022/12/27 08:17:29;;;;;;;5.28;1.90;;;;;;;4.47;82.73;101222.68;1617000;86;21379;-77
2022/12/27 08:20:14;;;;;;;6.20;1.50;;;;;;;4.45;82.62;101230.75;1630997;86;20974;-77
2022/12/27 08:22:59;;;;;;;6.47;1.67;;;;;;;4.47;82.75;101233.34;1633043;86;20973;-77
2022/12/27 08:25:44;;;;;;;7.47;1.72;;;;;;;4.50;82.75;101232.98;1634798;86;20925;-77
2022/12/27 08:28:30;;;;;;;6.85;2.20;;;;;;;4.54;82.72;101227.08;1619794;86;20980;-77
2022/12/27 08:31:15;;;;;;;9.83;1.98;;;;;;;4.54;82.63;101225.80;1614724;86;20940;-77
2022/12/27 08:34:00;;;;;;;5.83;2.40;;;;;;;4.50;82.57;101230.84;1624750;86;20993;-77
2022/12/27 08:36:45;;;;;;;5.67;1.55;;;;;;;4.51;82.63;101236.41;1621358;86;20925;-77
2022/12/27 08:39:30;;;;;;;4.28;1.27;;;;;;;4.54;82.65;101228.78;1630142;85;21426;-77
2022/12/27 08:42:15;;;;;;;9.93;1.95;;;;;;;4.52;82.52;101231.73;1627032;86;20924;-77
2022/12/27 08:45:00;;;;;;;7.42;1.62;;;;;;;4.52;82.59;101235.16;1626239;84;21466;-77
2022/12/27 08:47:45;;;;;;;4.92;1.30;;;;;;;4.57;82.64;101232.26;1628027;86;20966;-77
2022/12/27 08:50:30;;;;;;;6.35;1.40;;;;;;;4.60;82.54;101241.70;1632524;86;21455;-77
2022/12/27 08:53:15;;;;;;;9.97;2.00;;;;;;;4.60;82.54;101246.41;1633284;86;20936;-77
2022/12/27 08:56:00;;;;;;;5.10;2.00;;;;;;;4.65;82.61;101250.33;1628079;86;20917;-77
2022/12/27 08:58:50;;;;;;;5.10;1.62;;;;;;;4.71;82.46;101250.83;1626984;84;21029;-77
2022/12/27 09:01:34;;;;;;;6.28;1.70;;;;;;;4.73;82.57;101250.44;1628783;86;20941;-77
2022/12/27 09:04:21;;;;;;;6.67;1.82;;;;;;;4.76;82.46;101234.70;1629923;86;21406;-77
2022/12/27 09:07:05;;;;;;;4.40;1.75;;;;;;;4.74;82.47;101262.41;1632385;85;20937;-77
2022/12/27 09:09:50;;;;;;;8.48;2.17;;;;;;;4.81;82.53;101256.14;1628032;86;20905;-77
2022/12/27 09:12:35;;;;;;;7.62;1.87;;;;;;;4.83;82.51;101256.17;1633631;86;20965;-77
2022/12/27 09:15:20;;;;;;;8.98;2.12;;;;;;;4.83;82.46;101246.78;1628738;86;21503;-77
2022/12/27 09:18:06;;;;;;;7.72;2.12;;;;;;;4.89;82.56;101251.16;1635299;82;21027;-77
2022/12/27 09:20:50;;;;;;;6.87;1.80;;;;;;;4.90;82.46;101259.28;1617647;86;21115;-77
2022/12/27 09:23:36;;;;;;;5.33;1.90;;;;;;;4.94;82.45;101266.19;1627207;86;21121;-77
2022/12/27 09:26:26;;;;;;;3.33;1.93;;;;;;;4.98;82.48;101267.97;1629852;86;21003;-77
2022/12/27 09:28:55;;;;;;;4.65;2.05;;;;;;;5.02;82.46;101257.36;1625542;86;21149;-77
2022/12/27 09:31:22;;;;;;;10.32;2.17;;;;;;;5.05;82.44;101263.81;1629384;86;21060;-76
2022/12/27 09:34:10;;;;;;;6.47;2.08;;;;;;;5.07;82.48;101269.41;1633258;86;21325;-76
2022/12/27 09:36:39;;;;;;;9.70;2.45;;;;;;;5.11;82.46;101280.58;1628426;86;21428;-76
2022/12/27 09:39:06;;;;;;;8.55;2.05;;;;;;;5.09;82.35;101275.42;1625675;86;21005;-77
2022/12/27 09:41:44;;;;;;;;;;;;;;;5.06;82.38;101268.97;1652799;85;21103;-77
2022/12/27 09:44:37;;;;;;;5.42;1.85;;;;;;;5.06;82.17;101276.66;1645903;85;20589;-76
2022/12/27 09:47:18;;;;;;;5.62;1.82;;;;;;;5.04;82.27;101275.77;1647810;85;21712;-76
2022/12/27 09:50:01;;;;;;;9.85;2.10;;;;;;;4.99;82.07;101263.29;1633047;85;22092;-76
2022/12/27 09:52:48;;;;;;;5.42;1.70;;;;;;;4.92;82.16;101257.20;1648456;85;21085;-76
2022/12/27 09:55:29;;;;;;;13.08;2.08;;;;;;;4.92;82.28;101260.17;1650145;85;21117;-76
2022/12/27 09:58:06;;;;;;;8.75;2.35;;;;;;;4.93;82.29;101260.63;1633311;85;21072;-76
2022/12/27 10:00:33;;;;;;;9.45;2.40;;;;;;;4.91;82.25;101254.61;1640754;85;21305;-76
2022/12/27 10:03:05;;;;;;;8.78;2.55;;;;;;;4.93;82.26;101252.94;1640131;85;21873;-76
2022/12/27 10:05:36;;;;;;;13.10;5.47;;;;;;;4.95;82.28;101247.41;1636616;85;21154;-76
2022/12/27 10:08:22;;;;;;;14.43;5.25;;;;;;;4.98;82.21;101248.75;1646428;82;21783;-76
2022/12/27 10:11:37;;;;;;;10.40;3.52;;;;;;;4.98;82.17;101251.31;1636278;85;21177;-76
2022/12/27 10:14:50;;;;;;;7.22;2.70;;;;;;;5.01;82.20;101238.97;1637317;85;21711;-77
2022/12/27 10:17:28;;;;;;;13.00;2.52;;;;;;;5.02;82.13;101238.13;1640091;85;21741;-77
2022/12/27 10:20:15;;;;;;;7.25;1.90;;;;;;;5.04;82.19;101229.63;1608117;86;21706;-77
2022/12/27 10:22:59;;;;;;;6.75;1.80;;;;;;;5.08;82.12;101230.55;1557237;88;21097;-77
2022/12/27 10:25:27;;;;;;;7.40;2.55;;;;;;;5.08;82.00;101243.36;1581017;88;21085;-77
2022/12/27 10:28:00;;;;;;;8.80;2.42;;;;;;;5.09;82.07;101235.70;1640064;85;21064;-76
2022/12/27 10:30:30;;;;;;;5.97;2.10;;;;;;;5.10;82.04;101236.56;1633589;85;21104;-76
2022/12/27 10:32:56;;;;;;;5.65;2.05;;;;;;;5.09;81.98;101228.00;1644694;85;21132;-76
2022/12/27 10:35:23;;;;;;;9.53;2.83;;;;;;;5.08;81.94;101239.52;1640604;85;28343;-76
2022/12/27 10:37:52;;;;;;;6.25;2.27;;;;;;;5.08;81.99;101233.11;1638161;85;21132;-77
2022/12/27 10:40:26;;;;;;;5.40;1.95;;;;;;;5.08;81.98;101228.84;1637082;85;21056;-76
2022/12/27 10:43:07;;;;;;;7.60;1.98;;;;;;;5.09;81.96;101240.82;1629674;85;21894;-76
2022/12/27 10:45:38;;;;;;;6.15;1.90;;;;;;;5.08;81.93;101250.63;1636504;85;21108;-77
2022/12/27 10:48:25;;;;;;;8.25;1.95;;;;;;;5.07;81.90;101247.63;1637942;85;21091;-76
2022/12/27 10:51:02;;;;;;;12.37;2.33;;;;;;;5.06;81.93;101252.73;1636854;85;21589;-77
2022/12/27 10:53:49;;;;;;;8.38;2.58;;;;;;;5.07;81.84;101254.45;1641693;85;21089;-77
2022/12/27 10:56:43;;;;;;;7.22;2.30;;;;;;;5.05;81.87;101256.98;1641130;85;21537;-77
2022/12/27 10:59:26;;;;;;;6.15;2.20;;;;;;;5.05;81.81;101258.27;1644287;84;21073;-77
2022/12/27 11:02:04;;;;;;;7.78;2.80;;;;;;;5.02;81.81;101249.25;1646578;82;21530;-77
2022/12/27 11:04:31;;;;;;;12.40;2.67;;;;;;;5.00;81.77;101258.61;1636026;84;21108;-77
2022/12/27 11:07:06;;;;;;;5.85;2.30;;;;;;;4.98;81.81;101260.28;1643818;84;21083;-77
2022/12/27 11:09:37;;;;;;;5.50;2.10;;;;;;;4.98;81.84;101259.86;1643507;84;21189;-77
2022/12/27 11:12:31;;;;;;;7.17;2.30;;;;;;;4.97;81.69;101252.15;1639842;84;21117;-76
2022/12/27 11:15:05;;;;;;;4.97;2.45;;;;;;;4.94;81.69;101249.12;1642014;84;21100;-76
2022/12/27 11:17:48;;;;;;;4.78;2.35;;;;;;;4.94;81.77;101256.80;1642128;84;21100;-76
2022/12/27 11:20:32;;;;;;;7.95;2.37;;;;;;;4.97;81.79;101259.84;1642849;84;21715;-77
2022/12/27 11:23:07;;;;;;;5.20;2.42;;;;;;;4.99;81.76;101256.88;1643233;84;21103;-78
2022/12/27 11:25:34;;;;;;;12.58;3.85;;;;;;;4.99;81.68;101261.59;1644757;84;20981;-77
2022/12/27 11:28:23;;;;;;;12.93;3.87;;;;;;;4.98;81.64;101261.56;1646675;84;21005;-78
2022/12/27 11:30:57;;;;;;;11.25;3.22;;;;;;;4.98;81.68;101264.98;1643986;84;21490;-78
2022/12/27 11:33:29;;;;;;;6.78;2.85;;;;;;;4.98;81.69;101267.97;1643869;84;21522;-77
2022/12/27 11:35:59;;;;;;;5.70;2.08;;;;;;;5.01;81.67;101272.28;1645105;84;21867;-77
2022/12/27 11:38:29;;;;;;;7.30;2.05;;;;;;;5.02;81.60;101274.02;1654221;84;21605;-77
2022/12/27 11:41:06;;;;;;;6.80;2.17;;;;;;;5.02;81.60;101271.03;1658560;82;21819;-77
2022/12/27 11:43:38;;;;;;;4.33;1.92;;;;;;;5.02;81.47;101272.31;1642780;85;21111;-77
2022/12/27 11:46:10;;;;;;;7.53;2.08;;;;;;;5.03;81.53;101270.20;1632790;85;21115;-77
2022/12/27 11:48:43;;;;;;;7.35;2.27;;;;;;;5.06;81.52;101271.95;1634691;85;21294;-77
2022/12/27 11:51:36;;;;;;;8.28;2.12;;;;;;;5.09;81.41;101274.14;1634817;85;21143;-78
2022/12/27 11:54:33;;;;;;;5.30;2.22;;;;;;;5.14;81.47;101281.91;1646407;85;21540;-76
2022/12/27 11:57:23;;;;;;;7.70;1.90;;;;;;;5.18;81.48;101277.28;1630084;85;21151;-77
2022/12/27 12:00:16;;;;;;;8.85;1.65;;;;;;;5.24;81.49;101285.91;1636133;84;21087;-77
2022/12/27 12:03:06;;;;;;;3.90;1.95;;;;;;;5.29;81.54;101272.74;1616213;84;23167;-77
2022/12/27 12:05:58;;;;;;;8.88;2.22;;;;;;;5.35;81.49;101274.54;1628223;85;21083;-77
2022/12/27 12:08:56;;;;;;;7.85;2.42;;;;;;;5.35;81.34;101284.80;1642828;85;21116;-77
2022/12/27 12:11:37;;;;;;;7.97;2.85;;;;;;;5.35;81.35;101276.24;1633508;85;21533;-79
2022/12/27 12:14:30;;;;;;;10.45;2.67;;;;;;;5.38;81.38;101278.86;1630963;85;21091;-81
2022/12/27 12:17:17;;;;;;;7.42;2.70;;;;;;;5.39;81.37;101275.03;1633316;85;21777;-76
2022/12/27 12:20:05;;;;;;;9.70;2.92;;;;;;;5.41;81.31;101278.91;1625831;85;21149;-76
2022/12/27 12:22:58;;;;;;;10.18;3.35;;;;;;;5.41;81.19;101275.92;1638385;85;21143;-77
2022/12/27 12:26:01;;;;;;;13.58;2.92;;;;;;;5.42;81.25;101281.91;1531375;91;21090;-77
2022/12/27 12:29:00;;;;;;;14.58;5.55;;;;;;;5.40;81.24;101274.61;1542260;91;21506;-79
2022/12/27 12:31:47;;;;;;;14.98;4.35;;;;;;;5.41;81.27;101276.34;1530651;91;21176;-77
2022/12/27 12:34:37;;;;;;;11.25;3.45;;;;;;;5.42;81.21;101280.63;1529556;91;21597;-77
2022/12/27 12:37:37;;;;;;;26.75;9.13;;;;;;;5.39;81.23;101281.86;1531672;91;21743;-77
2022/12/27 12:40:28;;;;;;;10.15;3.60;;;;;;;5.37;81.20;101288.25;1532877;91;21135;-77
2022/12/27 12:43:09;;;;;;;11.80;4.80;;;;;;;5.36;81.18;101295.50;1497070;93;21161;-77
2022/12/27 12:46:09;;;;;;;17.55;7.15;;;;;;;5.35;81.21;101295.05;1508760;93;22254;-78
2022/12/27 12:48:41;;;;;;;20.25;9.08;;;;;;;5.31;81.16;101297.13;1492496;93;21631;-77
2022/12/27 12:51:39;;;;;;;13.50;6.80;;;;;;;5.28;81.26;101293.23;1501203;93;21134;-79
2022/12/27 12:54:28;;;;;;;15.13;6.25;;;;;;;5.29;81.25;101302.65;1507176;93;21733;-76
2022/12/27 12:57:03;;;;;;;14.58;7.62;;;;;;;5.30;81.27;101299.25;1501106;93;21126;-77
2022/12/27 13:00:11;;;;;;;11.18;7.92;;;;;;;5.28;81.12;101309.48;1505867;93;22064;-77
2022/12/27 13:03:22;;;;;;;9.30;6.55;;;;;;;5.24;81.13;101308.98;1526351;89;21131;-76
2022/12/27 13:06:35;;;;;;;10.43;4.40;;;;;;;5.22;81.15;101314.92;1568890;89;22513;-77
2022/12/27 13:09:23;;;;;;;6.20;3.80;;;;;;;5.19;81.18;101312.34;1569442;89;21496;-77
2022/12/27 13:12:10;;;;;;;6.25;2.70;;;;;;;5.17;81.17;101314.01;1604531;87;21176;-77
2022/12/27 13:14:54;;;;;;;11.57;4.97;;;;;;;5.17;81.16;101311.03;1604870;87;21808;-76
2022/12/27 13:17:48;;;;;;;9.35;5.50;;;;;;;5.14;81.13;101316.10;1609524;87;21139;-76
2022/12/27 13:20:29;;;;;;;8.30;3.95;;;;;;;5.13;81.16;101309.25;1607397;87;21105;-76
2022/12/27 13:23:13;;;;;;;11.08;4.15;;;;;;;5.11;81.12;101319.89;1605046;87;21140;-76
2022/12/27 13:26:05;;;;;;;13.38;4.35;;;;;;;5.09;81.07;101324.13;1607684;87;21144;-78
2022/12/27 13:28:46;;;;;;;11.30;6.90;;;;;;;5.10;81.10;101341.23;1606748;87;21632;-78
2022/12/27 13:31:31;;;;;;;18.40;9.53;;;;;;;5.11;81.07;101342.96;1603472;87;21519;-77
2022/12/27 13:34:14;;;;;;;14.98;5.80;;;;;;;5.13;81.05;101343.86;1621709;87;22215;-78
2022/12/27 13:37:21;;;;;;;10.45;7.03;;;;;;;5.12;80.96;101344.69;1612166;87;21107;-79
2022/12/27 13:40:36;;;;;;;11.93;6.83;;;;;;;5.13;80.99;101344.27;1624826;87;21756;-77
2022/12/27 13:43:23;;;;;;;6.80;3.67;;;;;;;5.13;80.91;101342.57;1644687;84;21093;-77
2022/12/27 13:46:28;;;;;;;11.60;4.28;;;;;;;5.14;80.84;101351.98;1639749;84;21104;-77
2022/12/27 13:49:18;;;;;;;11.23;5.20;;;;;;;5.14;80.85;101335.75;1648337;84;21076;-77
2022/12/27 13:51:48;;;;;;;6.05;3.17;;;;;;;5.15;80.86;101333.21;1638201;84;21353;-77
2022/12/27 13:54:56;;;;;;;10.28;3.90;;;;;;;5.17;80.81;101328.11;1664865;84;21110;-77
2022/12/27 13:57:31;;;;;;;15.72;10.70;;;;;;;5.17;80.82;101334.10;1648366;84;21492;-77
2022/12/27 14:00:03;;;;;;;7.30;3.52;;;;;;;5.16;80.76;101336.22;1651091;84;21090;-77
2022/12/27 14:02:44;;;;;;;7.55;3.05;;;;;;;5.18;80.72;101346.08;1653839;84;21061;-77
2022/12/27 14:05:30;;;;;;;7.83;2.65;;;;;;;5.18;80.74;101358.90;1662137;84;21113;-77
2022/12/27 14:08:28;;;;;;;10.08;3.20;;;;;;;5.19;80.70;101364.89;1657229;84;21675;-78
2022/12/27 14:10:55;;;;;;;7.95;2.10;;;;;;;5.18;80.67;101364.03;1665471;84;21646;-82
2022/12/27 14:13:27;;;;;;;7.80;2.27;;;;;;;5.19;80.67;101372.58;1663655;84;21074;-79
2022/12/27 14:16:17;;;;;;;5.85;2.42;;;;;;;5.16;80.63;101375.95;1652072;84;21475;-79
2022/12/27 14:19:20;;;;;;;5.37;2.30;;;;;;;5.16;80.84;101378.52;1660505;84;21085;-79
2022/12/27 14:22:23;;;;;;;9.45;5.15;;;;;;;5.17;80.68;101374.25;1652248;84;21455;-79
2022/12/27 14:25:04;;;;;;;15.00;8.00;;;;;;;5.17;80.64;101375.12;1655771;84;22294;-79
2022/12/27 14:28:07;;;;;;;8.78;3.67;;;;;;;5.17;80.61;101375.12;1666364;84;21719;-83
2022/12/27 14:31:27;;;;;;;10.00;4.00;;;;;;;5.18;80.60;101373.42;1659480;84;21084;-79
2022/12/27 14:34:15;;;;;;;7.53;3.80;;;;;;;5.17;80.57;101368.70;1655560;84;21092;-79
2022/12/27 14:37:09;;;;;;;8.05;3.35;;;;;;;5.18;80.59;101374.70;1661033;84;21498;-79